sensor_id;sensor_type;location;lat;lon;timestamp;temperature;humidity
67817;DHT22;54614;47.576;7.524;2023-05-13T00:01:27;25.20;54.80
67817;DHT22;54614;47.576;7.524;2023-05-13T00:03:53;25.30;54.90
67817;DHT22;54614;47.576;7.524;2023-05-13T00:06:19;25.30;54.90
67817;DHT22;54614;47.576;7.524;2023-05-13T00:08:46;25.30;54.90
67817;DHT22;54614;47.576;7.524;2023-05-13T00:11:12;25.20;54.90
67817;DHT22;54614;47.576;7.524;2023-05-13T00:13:37;25.30;54.90
67817;DHT22;54614;47.576;7.524;2023-05-13T00:16:03;25.30;54.90
67817;DHT22;54614;47.576;7.524;2023-05-13T00:18:29;25.20;54.90
67817;DHT22;54614;47.576;7.524;2023-05-13T00:20:55;25.20;54.90
67817;DHT22;54614;47.576;7.524;2023-05-13T00:23:21;25.20;54.90
67817;DHT22;54614;47.576;7.524;2023-05-13T00:25:47;25.20;54.90
67817;DHT22;54614;47.576;7.524;2023-05-13T00:28:13;25.30;55.00
67817;DHT22;54614;47.576;7.524;2023-05-13T00:30:43;25.30;54.90
67817;DHT22;54614;47.576;7.524;2023-05-13T00:33:10;25.20;54.90
67817;DHT22;54614;47.576;7.524;2023-05-13T00:35:36;25.20;54.90
67817;DHT22;54614;47.576;7.524;2023-05-13T00:38:01;25.20;54.90
67817;DHT22;54614;47.576;7.524;2023-05-13T00:40:27;25.30;54.90
67817;DHT22;54614;47.576;7.524;2023-05-13T00:42:53;25.20;54.90
67817;DHT22;54614;47.576;7.524;2023-05-13T00:45:20;25.30;54.90
67817;DHT22;54614;47.576;7.524;2023-05-13T00:47:46;25.20;54.90
67817;DHT22;54614;47.576;7.524;2023-05-13T00:50:13;25.30;54.90
67817;DHT22;54614;47.576;7.524;2023-05-13T00:52:40;25.20;54.80
67817;DHT22;54614;47.576;7.524;2023-05-13T00:55:08;25.20;54.90
67817;DHT22;54614;47.576;7.524;2023-05-13T00:57:36;25.20;54.90
67817;DHT22;54614;47.576;7.524;2023-05-13T01:00:03;25.20;54.80
67817;DHT22;54614;47.576;7.524;2023-05-13T01:02:44;25.20;54.90
67817;DHT22;54614;47.576;7.524;2023-05-13T01:05:30;25.20;54.90
67817;DHT22;54614;47.576;7.524;2023-05-13T01:11:13;25.20;54.90
67817;DHT22;54614;47.576;7.524;2023-05-13T01:13:48;25.20;55.00
67817;DHT22;54614;47.576;7.524;2023-05-13T01:16:23;25.20;54.90
67817;DHT22;54614;47.576;7.524;2023-05-13T01:19:41;25.20;54.90
67817;DHT22;54614;47.576;7.524;2023-05-13T01:22:09;25.20;54.90
67817;DHT22;54614;47.576;7.524;2023-05-13T01:24:35;25.20;54.90
67817;DHT22;54614;47.576;7.524;2023-05-13T01:27:00;25.20;54.90
67817;DHT22;54614;47.576;7.524;2023-05-13T01:29:27;25.20;54.90
67817;DHT22;54614;47.576;7.524;2023-05-13T01:31:54;25.20;54.90
67817;DHT22;54614;47.576;7.524;2023-05-13T01:34:22;25.20;54.90
67817;DHT22;54614;47.576;7.524;2023-05-13T01:36:50;25.20;54.90
67817;DHT22;54614;47.576;7.524;2023-05-13T01:39:17;25.20;54.90
67817;DHT22;54614;47.576;7.524;2023-05-13T01:41:44;25.20;54.90
67817;DHT22;54614;47.576;7.524;2023-05-13T01:44:10;25.20;54.80
67817;DHT22;54614;47.576;7.524;2023-05-13T01:46:37;25.20;54.80
67817;DHT22;54614;47.576;7.524;2023-05-13T01:49:03;25.20;54.90
67817;DHT22;54614;47.576;7.524;2023-05-13T01:51:30;25.20;54.90
67817;DHT22;54614;47.576;7.524;2023-05-13T01:53:56;25.20;54.80
67817;DHT22;54614;47.576;7.524;2023-05-13T01:56:22;25.20;54.90
67817;DHT22;54614;47.576;7.524;2023-05-13T01:58:48;25.20;54.80
67817;DHT22;54614;47.576;7.524;2023-05-13T02:01:14;25.20;54.90
67817;DHT22;54614;47.576;7.524;2023-05-13T02:03:39;25.20;54.80
67817;DHT22;54614;47.576;7.524;2023-05-13T02:06:05;25.20;54.80
67817;DHT22;54614;47.576;7.524;2023-05-13T02:08:31;25.20;54.80
67817;DHT22;54614;47.576;7.524;2023-05-13T02:10:58;25.20;54.80
67817;DHT22;54614;47.576;7.524;2023-05-13T02:13:24;25.20;54.80
67817;DHT22;54614;47.576;7.524;2023-05-13T02:15:51;25.20;54.80
67817;DHT22;54614;47.576;7.524;2023-05-13T02:18:18;25.20;54.80
67817;DHT22;54614;47.576;7.524;2023-05-13T02:20:44;25.20;54.80
67817;DHT22;54614;47.576;7.524;2023-05-13T02:23:11;25.20;54.80
67817;DHT22;54614;47.576;7.524;2023-05-13T02:25:37;25.20;54.80
67817;DHT22;54614;47.576;7.524;2023-05-13T02:28:03;25.20;54.80
67817;DHT22;54614;47.576;7.524;2023-05-13T02:30:29;25.20;54.70
67817;DHT22;54614;47.576;7.524;2023-05-13T02:32:56;25.20;54.70
67817;DHT22;54614;47.576;7.524;2023-05-13T02:35:22;25.20;54.70
67817;DHT22;54614;47.576;7.524;2023-05-13T02:37:50;25.20;54.70
67817;DHT22;54614;47.576;7.524;2023-05-13T02:40:15;25.20;54.70
67817;DHT22;54614;47.576;7.524;2023-05-13T02:42:41;25.20;54.70
67817;DHT22;54614;47.576;7.524;2023-05-13T02:45:09;25.20;54.80
67817;DHT22;54614;47.576;7.524;2023-05-13T02:47:35;25.20;54.70
67817;DHT22;54614;47.576;7.524;2023-05-13T02:50:02;25.20;54.80
67817;DHT22;54614;47.576;7.524;2023-05-13T02:52:30;25.20;54.70
67817;DHT22;54614;47.576;7.524;2023-05-13T02:54:56;25.20;54.70
67817;DHT22;54614;47.576;7.524;2023-05-13T02:57:22;25.20;54.70
67817;DHT22;54614;47.576;7.524;2023-05-13T02:59:47;25.20;54.70
67817;DHT22;54614;47.576;7.524;2023-05-13T03:02:13;25.20;54.80
67817;DHT22;54614;47.576;7.524;2023-05-13T03:04:39;25.20;54.70
67817;DHT22;54614;47.576;7.524;2023-05-13T03:07:05;25.20;54.80
67817;DHT22;54614;47.576;7.524;2023-05-13T03:09:31;25.20;54.70
67817;DHT22;54614;47.576;7.524;2023-05-13T03:11:59;25.20;55.30
67817;DHT22;54614;47.576;7.524;2023-05-13T03:14:25;25.20;54.70
67817;DHT22;54614;47.576;7.524;2023-05-13T03:16:51;25.20;55.30
67817;DHT22;54614;47.576;7.524;2023-05-13T03:19:17;25.20;54.70
67817;DHT22;54614;47.576;7.524;2023-05-13T03:21:43;25.20;54.70
67817;DHT22;54614;47.576;7.524;2023-05-13T03:24:08;25.20;54.70
67817;DHT22;54614;47.576;7.524;2023-05-13T03:26:34;25.20;54.70
67817;DHT22;54614;47.576;7.524;2023-05-13T03:29:00;25.20;54.70
67817;DHT22;54614;47.576;7.524;2023-05-13T03:31:26;25.20;54.70
67817;DHT22;54614;47.576;7.524;2023-05-13T03:33:52;25.20;54.70
67817;DHT22;54614;47.576;7.524;2023-05-13T03:36:18;25.20;54.70
67817;DHT22;54614;47.576;7.524;2023-05-13T03:38:43;25.20;54.70
67817;DHT22;54614;47.576;7.524;2023-05-13T03:41:09;25.20;54.70
67817;DHT22;54614;47.576;7.524;2023-05-13T03:43:35;25.20;54.70
67817;DHT22;54614;47.576;7.524;2023-05-13T03:46:01;25.20;54.70
67817;DHT22;54614;47.576;7.524;2023-05-13T03:48:27;25.20;54.70
67817;DHT22;54614;47.576;7.524;2023-05-13T03:50:53;25.20;54.70
67817;DHT22;54614;47.576;7.524;2023-05-13T03:53:18;25.20;54.70
67817;DHT22;54614;47.576;7.524;2023-05-13T03:55:44;25.20;54.70
67817;DHT22;54614;47.576;7.524;2023-05-13T03:58:12;25.20;54.70
67817;DHT22;54614;47.576;7.524;2023-05-13T04:00:42;25.20;54.70
67817;DHT22;54614;47.576;7.524;2023-05-13T04:03:11;25.20;54.70
67817;DHT22;54614;47.576;7.524;2023-05-13T04:05:37;25.20;54.70
67817;DHT22;54614;47.576;7.524;2023-05-13T04:08:03;25.20;54.60
67817;DHT22;54614;47.576;7.524;2023-05-13T04:10:29;25.20;54.70
67817;DHT22;54614;47.576;7.524;2023-05-13T04:12:54;25.20;54.70
67817;DHT22;54614;47.576;7.524;2023-05-13T04:15:20;25.20;54.60
67817;DHT22;54614;47.576;7.524;2023-05-13T04:17:47;25.20;54.60
67817;DHT22;54614;47.576;7.524;2023-05-13T04:20:13;25.20;54.60
67817;DHT22;54614;47.576;7.524;2023-05-13T04:22:39;25.20;54.60
67817;DHT22;54614;47.576;7.524;2023-05-13T04:25:05;25.20;54.60
67817;DHT22;54614;47.576;7.524;2023-05-13T04:27:31;25.20;54.60
67817;DHT22;54614;47.576;7.524;2023-05-13T04:29:57;25.20;54.60
67817;DHT22;54614;47.576;7.524;2023-05-13T04:32:22;25.20;54.60
67817;DHT22;54614;47.576;7.524;2023-05-13T04:34:48;25.20;54.60
67817;DHT22;54614;47.576;7.524;2023-05-13T04:37:15;25.20;54.60
67817;DHT22;54614;47.576;7.524;2023-05-13T04:39:44;25.20;54.60
67817;DHT22;54614;47.576;7.524;2023-05-13T04:42:11;25.20;54.60
67817;DHT22;54614;47.576;7.524;2023-05-13T04:44:38;25.10;54.60
67817;DHT22;54614;47.576;7.524;2023-05-13T04:47:04;25.20;54.60
67817;DHT22;54614;47.576;7.524;2023-05-13T04:49:30;25.20;54.60
67817;DHT22;54614;47.576;7.524;2023-05-13T04:51:56;25.10;54.50
67817;DHT22;54614;47.576;7.524;2023-05-13T04:54:22;25.20;54.60
67817;DHT22;54614;47.576;7.524;2023-05-13T04:56:48;25.20;54.60
67817;DHT22;54614;47.576;7.524;2023-05-13T04:59:14;25.20;54.60
67817;DHT22;54614;47.576;7.524;2023-05-13T05:01:40;25.20;54.70
67817;DHT22;54614;47.576;7.524;2023-05-13T05:04:05;25.20;54.60
67817;DHT22;54614;47.576;7.524;2023-05-13T05:06:31;25.10;54.60
67817;DHT22;54614;47.576;7.524;2023-05-13T05:08:58;25.10;54.50
67817;DHT22;54614;47.576;7.524;2023-05-13T05:11:24;25.10;54.50
67817;DHT22;54614;47.576;7.524;2023-05-13T05:13:50;25.10;54.50
67817;DHT22;54614;47.576;7.524;2023-05-13T05:16:16;25.20;54.60
67817;DHT22;54614;47.576;7.524;2023-05-13T05:18:42;25.10;54.50
67817;DHT22;54614;47.576;7.524;2023-05-13T05:21:08;25.20;54.60
67817;DHT22;54614;47.576;7.524;2023-05-13T05:23:35;25.20;54.50
67817;DHT22;54614;47.576;7.524;2023-05-13T05:26:01;25.10;54.50
67817;DHT22;54614;47.576;7.524;2023-05-13T05:28:28;25.10;54.50
67817;DHT22;54614;47.576;7.524;2023-05-13T05:30:54;25.20;54.70
67817;DHT22;54614;47.576;7.524;2023-05-13T05:33:21;25.20;54.70
67817;DHT22;54614;47.576;7.524;2023-05-13T05:35:47;25.20;54.60
67817;DHT22;54614;47.576;7.524;2023-05-13T05:38:13;25.10;54.60
67817;DHT22;54614;47.576;7.524;2023-05-13T05:40:44;25.10;54.60
67817;DHT22;54614;47.576;7.524;2023-05-13T05:43:10;25.20;54.60
67817;DHT22;54614;47.576;7.524;2023-05-13T05:45:37;25.10;54.60
67817;DHT22;54614;47.576;7.524;2023-05-13T05:48:04;25.10;54.60
67817;DHT22;54614;47.576;7.524;2023-05-13T05:50:31;25.10;54.60
67817;DHT22;54614;47.576;7.524;2023-05-13T05:52:58;25.10;54.60
67817;DHT22;54614;47.576;7.524;2023-05-13T05:55:25;25.10;54.60
67817;DHT22;54614;47.576;7.524;2023-05-13T05:57:53;25.10;54.60
67817;DHT22;54614;47.576;7.524;2023-05-13T06:00:20;25.10;54.60
67817;DHT22;54614;47.576;7.524;2023-05-13T06:02:46;25.10;54.60
67817;DHT22;54614;47.576;7.524;2023-05-13T06:05:13;25.10;54.60
67817;DHT22;54614;47.576;7.524;2023-05-13T06:07:39;25.10;54.60
67817;DHT22;54614;47.576;7.524;2023-05-13T06:10:05;25.10;54.90
67817;DHT22;54614;47.576;7.524;2023-05-13T06:12:32;25.10;54.70
67817;DHT22;54614;47.576;7.524;2023-05-13T06:14:58;25.20;54.80
67817;DHT22;54614;47.576;7.524;2023-05-13T06:17:25;25.10;54.70
67817;DHT22;54614;47.576;7.524;2023-05-13T06:19:50;25.20;55.10
67817;DHT22;54614;47.576;7.524;2023-05-13T06:22:16;25.20;55.20
67817;DHT22;54614;47.576;7.524;2023-05-13T06:24:42;25.20;55.40
67817;DHT22;54614;47.576;7.524;2023-05-13T06:27:12;25.20;55.50
67817;DHT22;54614;47.576;7.524;2023-05-13T06:29:38;25.20;55.50
67817;DHT22;54614;47.576;7.524;2023-05-13T06:32:04;25.20;55.30
67817;DHT22;54614;47.576;7.524;2023-05-13T06:34:30;25.20;55.70
67817;DHT22;54614;47.576;7.524;2023-05-13T06:36:56;25.10;55.90
67817;DHT22;54614;47.576;7.524;2023-05-13T06:39:22;25.00;55.70
67817;DHT22;54614;47.576;7.524;2023-05-13T06:41:48;25.00;55.60
67817;DHT22;54614;47.576;7.524;2023-05-13T06:44:13;25.00;55.60
67817;DHT22;54614;47.576;7.524;2023-05-13T06:46:39;25.10;55.70
67817;DHT22;54614;47.576;7.524;2023-05-13T06:49:05;25.10;55.40
67817;DHT22;54614;47.576;7.524;2023-05-13T06:51:31;25.10;55.20
67817;DHT22;54614;47.576;7.524;2023-05-13T06:53:59;25.20;55.00
67817;DHT22;54614;47.576;7.524;2023-05-13T06:56:25;25.20;55.00
67817;DHT22;54614;47.576;7.524;2023-05-13T06:58:53;25.20;55.00
67817;DHT22;54614;47.576;7.524;2023-05-13T07:01:19;25.20;55.00
67817;DHT22;54614;47.576;7.524;2023-05-13T07:03:45;25.20;55.00
67817;DHT22;54614;47.576;7.524;2023-05-13T07:06:11;25.20;55.20
67817;DHT22;54614;47.576;7.524;2023-05-13T07:08:37;25.20;55.20
67817;DHT22;54614;47.576;7.524;2023-05-13T07:11:04;25.10;55.20
67817;DHT22;54614;47.576;7.524;2023-05-13T07:13:30;25.10;55.30
67817;DHT22;54614;47.576;7.524;2023-05-13T07:15:57;25.10;55.30
67817;DHT22;54614;47.576;7.524;2023-05-13T07:18:23;25.20;55.20
67817;DHT22;54614;47.576;7.524;2023-05-13T07:20:49;25.20;55.20
67817;DHT22;54614;47.576;7.524;2023-05-13T07:23:15;25.20;55.20
67817;DHT22;54614;47.576;7.524;2023-05-13T07:25:41;25.20;55.10
67817;DHT22;54614;47.576;7.524;2023-05-13T07:28:06;25.20;55.20
67817;DHT22;54614;47.576;7.524;2023-05-13T07:30:32;25.20;55.50
67817;DHT22;54614;47.576;7.524;2023-05-13T07:32:58;25.10;55.40
67817;DHT22;54614;47.576;7.524;2023-05-13T07:35:24;25.20;55.70
67817;DHT22;54614;47.576;7.524;2023-05-13T07:37:50;25.20;55.50
67817;DHT22;54614;47.576;7.524;2023-05-13T07:40:15;25.10;55.30
67817;DHT22;54614;47.576;7.524;2023-05-13T07:42:42;25.20;55.30
67817;DHT22;54614;47.576;7.524;2023-05-13T07:45:08;25.20;55.30
67817;DHT22;54614;47.576;7.524;2023-05-13T07:47:35;25.10;55.10
67817;DHT22;54614;47.576;7.524;2023-05-13T07:50:01;25.10;55.20
67817;DHT22;54614;47.576;7.524;2023-05-13T07:52:26;25.10;55.00
67817;DHT22;54614;47.576;7.524;2023-05-13T07:54:53;25.20;55.20
67817;DHT22;54614;47.576;7.524;2023-05-13T07:57:19;25.20;55.00
67817;DHT22;54614;47.576;7.524;2023-05-13T07:59:45;25.20;55.00
67817;DHT22;54614;47.576;7.524;2023-05-13T08:02:11;25.20;55.00
67817;DHT22;54614;47.576;7.524;2023-05-13T08:04:37;25.20;55.00
67817;DHT22;54614;47.576;7.524;2023-05-13T08:07:03;25.20;55.00
67817;DHT22;54614;47.576;7.524;2023-05-13T08:09:29;25.20;55.00
67817;DHT22;54614;47.576;7.524;2023-05-13T08:11:55;25.20;55.00
67817;DHT22;54614;47.576;7.524;2023-05-13T08:14:21;25.20;55.00
67817;DHT22;54614;47.576;7.524;2023-05-13T08:16:47;25.20;55.00
67817;DHT22;54614;47.576;7.524;2023-05-13T08:19:13;25.20;54.90
67817;DHT22;54614;47.576;7.524;2023-05-13T08:21:39;25.20;55.00
67817;DHT22;54614;47.576;7.524;2023-05-13T08:24:06;25.20;55.00
67817;DHT22;54614;47.576;7.524;2023-05-13T08:26:32;25.20;54.90
67817;DHT22;54614;47.576;7.524;2023-05-13T08:28:58;25.20;54.90
67817;DHT22;54614;47.576;7.524;2023-05-13T08:31:24;25.20;55.00
67817;DHT22;54614;47.576;7.524;2023-05-13T08:33:51;25.20;54.90
67817;DHT22;54614;47.576;7.524;2023-05-13T08:36:19;25.20;54.90
67817;DHT22;54614;47.576;7.524;2023-05-13T08:38:46;25.20;54.90
67817;DHT22;54614;47.576;7.524;2023-05-13T08:41:12;25.20;55.00
67817;DHT22;54614;47.576;7.524;2023-05-13T08:43:39;25.20;55.10
67817;DHT22;54614;47.576;7.524;2023-05-13T08:46:09;25.20;55.10
67817;DHT22;54614;47.576;7.524;2023-05-13T08:48:38;25.20;55.10
67817;DHT22;54614;47.576;7.524;2023-05-13T08:51:05;25.20;55.00
67817;DHT22;54614;47.576;7.524;2023-05-13T08:53:33;25.20;55.00
67817;DHT22;54614;47.576;7.524;2023-05-13T08:56:01;25.20;55.00
67817;DHT22;54614;47.576;7.524;2023-05-13T08:58:27;25.20;55.00
67817;DHT22;54614;47.576;7.524;2023-05-13T09:00:53;25.20;55.00
67817;DHT22;54614;47.576;7.524;2023-05-13T09:03:20;25.20;55.00
67817;DHT22;54614;47.576;7.524;2023-05-13T09:05:46;25.30;55.10
67817;DHT22;54614;47.576;7.524;2023-05-13T09:08:13;25.20;55.00
67817;DHT22;54614;47.576;7.524;2023-05-13T09:10:40;25.30;55.10
67817;DHT22;54614;47.576;7.524;2023-05-13T09:13:06;25.30;55.10
67817;DHT22;54614;47.576;7.524;2023-05-13T09:15:32;25.30;55.10
67817;DHT22;54614;47.576;7.524;2023-05-13T09:18:05;25.30;55.20
67817;DHT22;54614;47.576;7.524;2023-05-13T09:20:32;25.30;55.30
67817;DHT22;54614;47.576;7.524;2023-05-13T09:23:05;25.30;55.40
67817;DHT22;54614;47.576;7.524;2023-05-13T09:25:33;25.30;55.40
67817;DHT22;54614;47.576;7.524;2023-05-13T09:28:01;25.30;55.40
67817;DHT22;54614;47.576;7.524;2023-05-13T09:30:38;25.30;55.60
67817;DHT22;54614;47.576;7.524;2023-05-13T09:33:14;25.20;55.40
67817;DHT22;54614;47.576;7.524;2023-05-13T09:35:43;25.20;55.30
67817;DHT22;54614;47.576;7.524;2023-05-13T09:38:20;25.20;55.30
67817;DHT22;54614;47.576;7.524;2023-05-13T09:43:30;25.30;55.10
67817;DHT22;54614;47.576;7.524;2023-05-13T09:46:00;25.20;55.10
67817;DHT22;54614;47.576;7.524;2023-05-13T09:48:29;25.20;55.10
67817;DHT22;54614;47.576;7.524;2023-05-13T09:50:57;25.20;55.00
67817;DHT22;54614;47.576;7.524;2023-05-13T09:53:24;25.30;55.20
67817;DHT22;54614;47.576;7.524;2023-05-13T09:55:52;25.20;54.90
67817;DHT22;54614;47.576;7.524;2023-05-13T09:58:20;25.20;55.00
67817;DHT22;54614;47.576;7.524;2023-05-13T10:00:47;25.20;55.00
67817;DHT22;54614;47.576;7.524;2023-05-13T10:03:13;25.20;54.90
67817;DHT22;54614;47.576;7.524;2023-05-13T10:05:40;25.20;55.00
67817;DHT22;54614;47.576;7.524;2023-05-13T10:08:11;25.30;55.10
67817;DHT22;54614;47.576;7.524;2023-05-13T10:10:38;25.30;55.10
67817;DHT22;54614;47.576;7.524;2023-05-13T10:13:09;25.20;55.30
67817;DHT22;54614;47.576;7.524;2023-05-13T10:15:49;25.20;55.30
67817;DHT22;54614;47.576;7.524;2023-05-13T10:18:18;25.20;55.50
67817;DHT22;54614;47.576;7.524;2023-05-13T10:20:45;25.20;55.50
67817;DHT22;54614;47.576;7.524;2023-05-13T10:23:12;25.20;55.50
67817;DHT22;54614;47.576;7.524;2023-05-13T10:25:38;25.20;55.40
67817;DHT22;54614;47.576;7.524;2023-05-13T10:28:04;25.20;55.50
67817;DHT22;54614;47.576;7.524;2023-05-13T10:30:31;25.20;55.30
67817;DHT22;54614;47.576;7.524;2023-05-13T10:33:00;25.20;55.20
67817;DHT22;54614;47.576;7.524;2023-05-13T10:35:31;25.20;55.10
67817;DHT22;54614;47.576;7.524;2023-05-13T10:38:06;25.20;55.20
67817;DHT22;54614;47.576;7.524;2023-05-13T10:43:33;25.10;55.30
67817;DHT22;54614;47.576;7.524;2023-05-13T10:51:15;25.10;55.10
67817;DHT22;54614;47.576;7.524;2023-05-13T10:53:56;25.10;55.10
67817;DHT22;54614;47.576;7.524;2023-05-13T10:56:25;25.10;55.10
67817;DHT22;54614;47.576;7.524;2023-05-13T10:59:03;25.10;55.30
67817;DHT22;54614;47.576;7.524;2023-05-13T11:01:33;25.20;55.20
67817;DHT22;54614;47.576;7.524;2023-05-13T11:04:04;25.10;55.90
67817;DHT22;54614;47.576;7.524;2023-05-13T11:06:37;25.10;55.30
67817;DHT22;54614;47.576;7.524;2023-05-13T11:12:03;25.10;55.10
67817;DHT22;54614;47.576;7.524;2023-05-13T11:14:30;25.10;55.20
67817;DHT22;54614;47.576;7.524;2023-05-13T11:22:13;25.00;55.70
67817;DHT22;54614;47.576;7.524;2023-05-13T11:25:03;25.00;55.50
67817;DHT22;54614;47.576;7.524;2023-05-13T11:27:36;25.00;55.20
67817;DHT22;54614;47.576;7.524;2023-05-13T11:30:19;25.00;55.20
67817;DHT22;54614;47.576;7.524;2023-05-13T11:32:57;25.00;55.40
67817;DHT22;54614;47.576;7.524;2023-05-13T11:37:56;25.00;55.90
67817;DHT22;54614;47.576;7.524;2023-05-13T11:40:34;25.10;56.20
67817;DHT22;54614;47.576;7.524;2023-05-13T11:43:01;25.10;56.90
67817;DHT22;54614;47.576;7.524;2023-05-13T11:45:30;25.10;56.70
67817;DHT22;54614;47.576;7.524;2023-05-13T11:47:56;25.10;56.40
67817;DHT22;54614;47.576;7.524;2023-05-13T11:50:26;25.10;56.30
67817;DHT22;54614;47.576;7.524;2023-05-13T11:53:00;25.10;56.10
67817;DHT22;54614;47.576;7.524;2023-05-13T11:55:28;25.10;55.90
67817;DHT22;54614;47.576;7.524;2023-05-13T11:57:56;25.10;55.90
67817;DHT22;54614;47.576;7.524;2023-05-13T12:00:30;25.10;55.90
67817;DHT22;54614;47.576;7.524;2023-05-13T12:02:58;25.10;55.90
67817;DHT22;54614;47.576;7.524;2023-05-13T12:05:25;25.10;55.70
67817;DHT22;54614;47.576;7.524;2023-05-13T12:07:55;25.10;55.80
67817;DHT22;54614;47.576;7.524;2023-05-13T12:10:22;25.10;55.40
67817;DHT22;54614;47.576;7.524;2023-05-13T12:12:49;24.90;54.90
67817;DHT22;54614;47.576;7.524;2023-05-13T12:15:19;24.80;54.40
67817;DHT22;54614;47.576;7.524;2023-05-13T12:17:46;24.70;54.40
67817;DHT22;54614;47.576;7.524;2023-05-13T12:20:17;24.60;54.00
67817;DHT22;54614;47.576;7.524;2023-05-13T12:25:44;24.50;54.30
67817;DHT22;54614;47.576;7.524;2023-05-13T12:28:13;24.50;54.60
67817;DHT22;54614;47.576;7.524;2023-05-13T12:31:03;24.50;54.00
67817;DHT22;54614;47.576;7.524;2023-05-13T12:33:40;24.50;54.60
67817;DHT22;54614;47.576;7.524;2023-05-13T12:36:21;24.50;54.80
67817;DHT22;54614;47.576;7.524;2023-05-13T12:41:25;24.60;54.30
67817;DHT22;54614;47.576;7.524;2023-05-13T12:44:07;24.70;54.10
67817;DHT22;54614;47.576;7.524;2023-05-13T12:46:54;24.70;54.00
67817;DHT22;54614;47.576;7.524;2023-05-13T12:49:26;24.80;54.30
67817;DHT22;54614;47.576;7.524;2023-05-13T12:51:52;24.80;54.20
67817;DHT22;54614;47.576;7.524;2023-05-13T12:54:19;24.80;54.00
67817;DHT22;54614;47.576;7.524;2023-05-13T12:56:46;24.80;54.00
67817;DHT22;54614;47.576;7.524;2023-05-13T12:59:12;24.80;54.20
67817;DHT22;54614;47.576;7.524;2023-05-13T13:01:38;24.80;54.20
67817;DHT22;54614;47.576;7.524;2023-05-13T13:04:05;24.90;55.80
67817;DHT22;54614;47.576;7.524;2023-05-13T13:06:31;24.80;59.10
67817;DHT22;54614;47.576;7.524;2023-05-13T13:08:56;24.80;58.10
67817;DHT22;54614;47.576;7.524;2023-05-13T13:11:22;24.80;58.50
67817;DHT22;54614;47.576;7.524;2023-05-13T13:13:48;24.80;57.30
67817;DHT22;54614;47.576;7.524;2023-05-13T13:16:15;24.80;56.30
67817;DHT22;54614;47.576;7.524;2023-05-13T13:18:41;24.90;55.70
67817;DHT22;54614;47.576;7.524;2023-05-13T13:21:07;24.90;56.30
67817;DHT22;54614;47.576;7.524;2023-05-13T13:23:33;25.00;55.70
67817;DHT22;54614;47.576;7.524;2023-05-13T13:25:59;24.90;55.60
67817;DHT22;54614;47.576;7.524;2023-05-13T13:28:25;25.00;55.80
67817;DHT22;54614;47.576;7.524;2023-05-13T13:30:52;24.90;55.90
67817;DHT22;54614;47.576;7.524;2023-05-13T13:33:18;24.90;55.90
67817;DHT22;54614;47.576;7.524;2023-05-13T13:35:46;24.90;56.10
67817;DHT22;54614;47.576;7.524;2023-05-13T13:38:13;24.80;56.20
67817;DHT22;54614;47.576;7.524;2023-05-13T13:40:39;24.80;55.70
67817;DHT22;54614;47.576;7.524;2023-05-13T13:43:06;24.90;56.10
67817;DHT22;54614;47.576;7.524;2023-05-13T13:45:32;24.90;55.90
67817;DHT22;54614;47.576;7.524;2023-05-13T13:47:58;24.90;55.70
67817;DHT22;54614;47.576;7.524;2023-05-13T13:50:24;25.00;55.50
67817;DHT22;54614;47.576;7.524;2023-05-13T13:52:51;25.00;55.50
67817;DHT22;54614;47.576;7.524;2023-05-13T13:55:18;25.00;55.30
67817;DHT22;54614;47.576;7.524;2023-05-13T13:57:45;25.00;55.20
67817;DHT22;54614;47.576;7.524;2023-05-13T14:00:11;25.00;55.60
67817;DHT22;54614;47.576;7.524;2023-05-13T14:02:39;25.00;55.60
67817;DHT22;54614;47.576;7.524;2023-05-13T14:05:05;25.00;55.30
67817;DHT22;54614;47.576;7.524;2023-05-13T14:07:32;25.00;55.20
67817;DHT22;54614;47.576;7.524;2023-05-13T14:09:57;25.10;55.30
67817;DHT22;54614;47.576;7.524;2023-05-13T14:12:23;25.00;55.00
67817;DHT22;54614;47.576;7.524;2023-05-13T14:14:49;25.00;54.90
67817;DHT22;54614;47.576;7.524;2023-05-13T14:17:15;25.00;55.00
67817;DHT22;54614;47.576;7.524;2023-05-13T14:19:41;25.00;55.00
67817;DHT22;54614;47.576;7.524;2023-05-13T14:22:07;25.00;55.30
67817;DHT22;54614;47.576;7.524;2023-05-13T14:24:32;25.00;55.20
67817;DHT22;54614;47.576;7.524;2023-05-13T14:26:58;24.90;55.20
67817;DHT22;54614;47.576;7.524;2023-05-13T14:29:25;24.90;55.10
67817;DHT22;54614;47.576;7.524;2023-05-13T14:31:52;24.90;55.10
67817;DHT22;54614;47.576;7.524;2023-05-13T14:34:18;24.90;55.70
67817;DHT22;54614;47.576;7.524;2023-05-13T14:36:44;24.90;55.70
67817;DHT22;54614;47.576;7.524;2023-05-13T14:39:10;24.90;55.40
67817;DHT22;54614;47.576;7.524;2023-05-13T14:41:36;24.90;55.30
67817;DHT22;54614;47.576;7.524;2023-05-13T14:44:03;24.90;55.20
67817;DHT22;54614;47.576;7.524;2023-05-13T14:46:29;24.90;55.00
67817;DHT22;54614;47.576;7.524;2023-05-13T14:48:55;24.90;54.90
67817;DHT22;54614;47.576;7.524;2023-05-13T14:51:21;24.90;55.20
67817;DHT22;54614;47.576;7.524;2023-05-13T14:53:46;24.90;55.10
67817;DHT22;54614;47.576;7.524;2023-05-13T14:56:12;25.00;55.10
67817;DHT22;54614;47.576;7.524;2023-05-13T14:58:38;24.90;55.40
67817;DHT22;54614;47.576;7.524;2023-05-13T15:01:04;24.90;55.70
67817;DHT22;54614;47.576;7.524;2023-05-13T15:03:30;24.90;55.50
67817;DHT22;54614;47.576;7.524;2023-05-13T15:05:56;24.90;55.60
67817;DHT22;54614;47.576;7.524;2023-05-13T15:08:22;24.90;55.50
67817;DHT22;54614;47.576;7.524;2023-05-13T15:10:48;24.90;55.40
67817;DHT22;54614;47.576;7.524;2023-05-13T15:13:15;25.00;55.40
67817;DHT22;54614;47.576;7.524;2023-05-13T15:15:41;25.00;55.30
67817;DHT22;54614;47.576;7.524;2023-05-13T15:18:07;25.00;55.30
67817;DHT22;54614;47.576;7.524;2023-05-13T15:20:32;25.00;55.20
67817;DHT22;54614;47.576;7.524;2023-05-13T15:22:58;25.00;55.10
67817;DHT22;54614;47.576;7.524;2023-05-13T15:25:24;25.00;55.10
67817;DHT22;54614;47.576;7.524;2023-05-13T15:27:50;25.00;55.00
67817;DHT22;54614;47.576;7.524;2023-05-13T15:30:16;25.00;55.00
67817;DHT22;54614;47.576;7.524;2023-05-13T15:32:42;25.00;55.00
67817;DHT22;54614;47.576;7.524;2023-05-13T15:35:08;25.00;55.00
67817;DHT22;54614;47.576;7.524;2023-05-13T15:37:34;24.90;55.00
67817;DHT22;54614;47.576;7.524;2023-05-13T15:39:59;24.90;54.90
67817;DHT22;54614;47.576;7.524;2023-05-13T15:42:25;24.90;54.90
67817;DHT22;54614;47.576;7.524;2023-05-13T15:44:51;24.90;54.90
67817;DHT22;54614;47.576;7.524;2023-05-13T15:47:17;24.90;54.90
67817;DHT22;54614;47.576;7.524;2023-05-13T15:49:43;24.90;55.00
67817;DHT22;54614;47.576;7.524;2023-05-13T15:52:09;24.90;55.70
67817;DHT22;54614;47.576;7.524;2023-05-13T15:54:35;24.90;55.60
67817;DHT22;54614;47.576;7.524;2023-05-13T15:57:01;24.80;55.60
67817;DHT22;54614;47.576;7.524;2023-05-13T15:59:26;24.90;55.50
67817;DHT22;54614;47.576;7.524;2023-05-13T16:01:52;24.90;55.60